createdAt,value
2022-08-17T00:01:04.973Z,99822.50
2022-08-17T00:06:14.071Z,99822.00
2022-08-17T00:11:18.220Z,99837.38
2022-08-17T00:16:23.047Z,99833.13
2022-08-17T00:22:31.360Z,99840.09
2022-08-17T00:27:10.818Z,99846.31
2022-08-17T00:33:13.838Z,99840.72
2022-08-17T00:37:37.880Z,99846.31
2022-08-17T00:42:40.908Z,99843.59
2022-08-17T00:47:43.923Z,99847.97
2022-08-17T00:52:56.756Z,99850.03
2022-08-17T00:58:01.258Z,99846.97
2022-08-17T01:03:06.933Z,99841.91
2022-08-17T01:08:12.947Z,99848.31
2022-08-17T01:13:15.878Z,99857.78
2022-08-17T01:18:18.708Z,99854.22
2022-08-17T01:23:24.489Z,99845.44
2022-08-17T01:28:52.601Z,99848.13
2022-08-17T01:33:51.773Z,99843.34
2022-08-17T01:38:55.977Z,99843.53
2022-08-17T01:44:01.580Z,99849.44
2022-08-17T01:49:07.051Z,99847.09
2022-08-17T01:54:12.622Z,99841.50
2022-08-17T01:59:16.096Z,99857.34
2022-08-17T02:04:19.122Z,99846.53
2022-08-17T02:09:25.666Z,99845.38
2022-08-17T02:14:28.981Z,99851.94
2022-08-17T02:19:32.268Z,99831.00
2022-08-17T02:25:00.187Z,99828.41
2022-08-17T02:30:00.358Z,99840.81
2022-08-17T02:35:03.420Z,99833.31
2022-08-17T02:40:09.142Z,99823.34
2022-08-17T02:45:13.497Z,99824.28
2022-08-17T02:50:17.262Z,99817.75
2022-08-17T02:55:23.737Z,99819.72
2022-08-17T03:00:29.192Z,99819.59
2022-08-17T03:05:33.265Z,99810.66
2022-08-17T03:10:37.496Z,99808.06
2022-08-17T03:15:43.891Z,99816.34
2022-08-17T03:20:47.191Z,99822.31
2022-08-17T03:25:53.437Z,99817.19
2022-08-17T03:30:56.647Z,99816.34
2022-08-17T03:35:59.605Z,99815.66
2022-08-17T03:41:03.913Z,99821.91
2022-08-17T03:46:27.940Z,99823.66
2022-08-17T03:51:49.770Z,99824.34
2022-08-17T03:56:58.728Z,99828.91
2022-08-17T04:02:03.735Z,99821.59
2022-08-17T04:07:06.987Z,99825.19
2022-08-17T04:12:11.216Z,99820.22
2022-08-17T04:17:15.015Z,99833.22
2022-08-17T04:22:30.291Z,99834.66
2022-08-17T04:27:35.855Z,99848.91
2022-08-17T04:33:04.552Z,99854.13
2022-08-17T04:38:10.820Z,99860.78
2022-08-17T04:43:16.394Z,99866.78
2022-08-17T04:48:21.728Z,99863.16
2022-08-17T04:53:24.642Z,99866.56
2022-08-17T04:58:29.311Z,99873.34
2022-08-17T05:03:32.169Z,99881.84
2022-08-17T05:08:34.873Z,99890.34
2022-08-17T05:13:39.004Z,99892.28
2022-08-17T05:18:41.762Z,99887.34
2022-08-17T05:23:44.465Z,99893.06
2022-08-17T05:28:53.406Z,99897.56
2022-08-17T05:33:56.964Z,99896.84
2022-08-17T05:39:00.116Z,99890.78
2022-08-17T05:44:05.238Z,99906.53
2022-08-17T05:49:08.906Z,99909.63
2022-08-17T05:54:21.530Z,99900.41
2022-08-17T05:59:30.840Z,99911.31
2022-08-17T06:04:38.290Z,99904.78
2022-08-17T06:09:42.916Z,99906.63
2022-08-17T06:14:56.069Z,99913.72
2022-08-17T06:20:00.628Z,99912.75
2022-08-17T06:25:09.996Z,99913.72
2022-08-17T06:30:16.074Z,99921.44
2022-08-17T06:35:20.583Z,99919.13
2022-08-17T06:40:46.399Z,99923.09
2022-08-17T06:45:54.209Z,99917.84
2022-08-17T06:51:00.228Z,99922.16
2022-08-17T06:56:05.439Z,99933.94
2022-08-17T07:01:11.847Z,99920.34
2022-08-17T07:06:17.105Z,99928.75
2022-08-17T07:11:24.423Z,99923.28
2022-08-17T07:16:38.878Z,99921.41
2022-08-17T07:21:45.989Z,99926.84
2022-08-17T07:26:49.650Z,99920.84
2022-08-17T07:31:55.996Z,99910.28
2022-08-17T07:37:03.396Z,99910.47
2022-08-17T07:42:06.398Z,99906.31
2022-08-17T07:47:28.051Z,99909.44
2022-08-17T07:52:50.439Z,99914.34
2022-08-17T07:57:56.019Z,99911.19
2022-08-17T08:03:07.199Z,99906.13
2022-08-17T08:08:28.171Z,99908.22
2022-08-17T08:13:32.178Z,99898.94
2022-08-17T08:18:54.719Z,99912.84
2022-08-17T08:24:02.184Z,99915.38
2022-08-17T08:29:09.327Z,99914.72
2022-08-17T08:35:01.067Z,99912.72
2022-08-17T08:39:45.212Z,99918.66
2022-08-17T08:44:59.796Z,99926.44
2022-08-17T08:50:37.395Z,99917.31
2022-08-17T08:55:48.591Z,99920.41
2022-08-17T09:00:53.324Z,99918.53
2022-08-17T09:06:32.018Z,99916.34
2022-08-17T09:12:01.857Z,99911.50
2022-08-17T09:17:08.441Z,99919.28
2022-08-17T09:22:25.585Z,99914.38
2022-08-17T09:27:29.859Z,99905.28
2022-08-17T09:32:35.218Z,99900.25
2022-08-17T09:37:44.294Z,99915.47
2022-08-17T09:42:48.868Z,99907.00
2022-08-17T09:47:54.474Z,99906.88
2022-08-17T09:52:59.887Z,99903.00
2022-08-17T09:58:05.907Z,99903.00
2022-08-17T10:03:25.063Z,99895.22
2022-08-17T10:08:36.058Z,99895.09
2022-08-17T10:13:52.756Z,99875.13
2022-08-17T10:19:04.464Z,99873.78
2022-08-17T10:24:28.520Z,99872.59
2022-08-17T10:29:46.252Z,99866.72
2022-08-17T10:35:02.069Z,99866.38
2022-08-17T10:40:32.608Z,99854.41
2022-08-17T10:45:37.859Z,99856.94
2022-08-17T10:50:47.477Z,99853.72
2022-08-17T10:56:17.412Z,99847.97
2022-08-17T11:01:20.534Z,99852.53
2022-08-17T11:06:26.439Z,99840.38
2022-08-17T11:11:47.293Z,99848.16
2022-08-17T11:16:58.327Z,99847.13
2022-08-17T11:22:08.068Z,99849.53
2022-08-17T11:27:24.134Z,99839.72
2022-08-17T11:32:34.324Z,99840.09
2022-08-17T11:37:47.367Z,99844.84
2022-08-17T11:43:00.930Z,99829.78
2022-08-17T11:48:28.706Z,99832.50
2022-08-17T11:54:31.748Z,99823.00
2022-08-17T11:59:59.030Z,99823.53
2022-08-17T12:05:26.088Z,99810.31
2022-08-17T12:10:31.873Z,99814.88
2022-08-17T12:15:38.932Z,99818.78
2022-08-17T12:20:43.708Z,99809.97
2022-08-17T12:25:49.255Z,99814.72
2022-08-17T12:30:53.536Z,99804.75
2022-08-17T12:35:59.475Z,99811.00
2022-08-17T12:41:24.339Z,99818.94
2022-08-17T12:46:28.739Z,99825.88
2022-08-17T12:51:31.723Z,99820.81
2022-08-17T12:56:35.048Z,99826.72
2022-08-17T13:01:41.631Z,99832.66
2022-08-17T13:06:48.530Z,99812.88
2022-08-17T13:11:52.200Z,99812.88
2022-08-17T13:16:58.151Z,99807.28
2022-08-17T13:22:01.793Z,99805.41
2022-08-17T13:27:08.737Z,99803.19
2022-08-17T13:32:19.759Z,99793.56
2022-08-17T13:37:30.126Z,99783.41
2022-08-17T13:42:51.510Z,99776.97
2022-08-17T13:48:14.121Z,99777.13
2022-08-17T13:53:21.317Z,99770.03
2022-08-17T13:58:25.395Z,99775.44
2022-08-17T14:03:29.513Z,99773.22
2022-08-17T14:08:33.227Z,99768.66
2022-08-17T14:13:36.496Z,99767.63
2022-08-17T14:18:57.058Z,99774.59
2022-08-17T14:24:00.323Z,99778.81
2022-08-17T14:29:03.138Z,99786.75
2022-08-17T14:34:10.573Z,99788.25
2022-08-17T14:39:16.151Z,99779.13
2022-08-17T14:44:18.980Z,99776.94
2022-08-17T14:49:23.878Z,99774.69
2022-08-17T14:54:33.910Z,99767.94
2022-08-17T14:59:37.562Z,99770.16
2022-08-17T15:04:45.578Z,99760.47
2022-08-17T15:09:48.625Z,99757.41
2022-08-17T15:14:51.607Z,99758.91
2022-08-17T15:19:55.951Z,99744.69
2022-08-17T15:24:58.686Z,99737.03
2022-08-17T15:30:01.731Z,99747.88
2022-08-17T15:35:06.977Z,99733.44
2022-08-17T15:40:11.119Z,99724.16
2022-08-17T15:45:14.563Z,99718.91
2022-08-17T15:50:18.806Z,99719.88
2022-08-17T15:55:24.163Z,99729.53
2022-08-17T16:00:28.485Z,99730.38
2022-08-17T16:05:32.760Z,99730.69
2022-08-17T16:10:36.059Z,99728.97
2022-08-17T16:15:39.151Z,99727.94
2022-08-17T16:20:43.587Z,99720.47
2022-08-17T16:25:53.451Z,99701.97
2022-08-17T16:30:56.860Z,99706.53
2022-08-17T16:36:01.015Z,99716.41
2022-08-17T16:41:04.025Z,99710.28
2022-08-17T16:46:06.747Z,99707.53
2022-08-17T16:51:10.984Z,99695.69
2022-08-17T16:56:13.851Z,99701.13
2022-08-17T17:01:20.645Z,99702.66
2022-08-17T17:06:30.835Z,99698.38
2022-08-17T17:11:36.368Z,99714.34
2022-08-17T17:16:45.629Z,99708.53
2022-08-17T17:21:51.827Z,99714.47
2022-08-17T17:27:07.237Z,99722.28
2022-08-17T17:32:14.950Z,99721.09
2022-08-17T17:37:25.637Z,99712.78
2022-08-17T17:42:31.326Z,99711.44
2022-08-17T17:47:34.807Z,99724.16
2022-08-17T17:52:47.603Z,99716.34
2022-08-17T17:57:57.114Z,99712.63
2022-08-17T18:03:07.220Z,99721.78
2022-08-17T18:08:18.884Z,99727.19
2022-08-17T18:13:26.597Z,99724.50
2022-08-17T18:18:40.338Z,99722.31
2022-08-17T18:23:56.223Z,99737.34
2022-08-17T18:28:58.941Z,99731.09
2022-08-17T18:34:43.692Z,99732.09
2022-08-17T18:39:44.930Z,99726.34
2022-08-17T18:44:51.680Z,99723.47
2022-08-17T18:49:58.552Z,99727.53
2022-08-17T18:55:08.496Z,99736.50
2022-08-17T19:00:12.851Z,99747.53
2022-08-17T19:05:28.242Z,99742.59
2022-08-17T19:10:46.661Z,99735.81
2022-08-17T19:16:11.666Z,99742.78
2022-08-17T19:21:16.396Z,99741.94
2022-08-17T19:26:55.209Z,99728.84
2022-08-17T19:31:45.624Z,99725.50
2022-08-17T19:36:51.603Z,99722.91
2022-08-17T19:42:00.723Z,99725.78
2022-08-17T19:47:10.414Z,99722.34
2022-08-17T19:52:22.551Z,99719.16
2022-08-17T19:57:33.671Z,99725.75
2022-08-17T20:02:38.774Z,99725.75
2022-08-17T20:07:44.622Z,99721.16
2022-08-17T20:12:48.775Z,99705.88
2022-08-17T20:17:51.794Z,99714.88
2022-08-17T20:22:56.198Z,99717.41
2022-08-17T20:28:06.198Z,99715.84
2022-08-17T20:33:19.413Z,99722.72
2022-08-17T20:38:42.122Z,99724.09
2022-08-17T20:44:05.099Z,99737.91
2022-08-17T20:49:16.409Z,99734.41
2022-08-17T20:54:50.600Z,99727.53
2022-08-17T21:00:15.000Z,99732.91
2022-08-17T21:05:40.431Z,99734.28
2022-08-17T21:10:47.145Z,99733.47
2022-08-17T21:15:54.719Z,99734.34
2022-08-17T21:21:05.338Z,99737.53
2022-08-17T21:26:17.440Z,99749.44
2022-08-17T21:31:34.422Z,99750.00
2022-08-17T21:36:37.351Z,99758.22
2022-08-17T21:41:46.428Z,99756.16
2022-08-17T21:46:52.294Z,99755.78
2022-08-17T21:51:55.989Z,99760.91
2022-08-17T21:56:59.011Z,99762.41
2022-08-17T22:02:03.897Z,99756.28
2022-08-17T22:07:07.717Z,99753.94
2022-08-17T22:12:11.891Z,99757.31
2022-08-17T22:17:18.067Z,99757.13
2022-08-17T22:22:26.250Z,99758.63
2022-08-17T22:27:51.192Z,99756.16
2022-08-17T22:32:55.456Z,99765.78
2022-08-17T22:37:58.898Z,99781.41
2022-08-17T22:43:03.425Z,99784.00
2022-08-17T22:48:07.662Z,99786.19
2022-08-17T22:53:32.999Z,99786.72
2022-08-17T22:58:59.208Z,99789.25
2022-08-17T23:04:05.733Z,99785.34
2022-08-17T23:09:09.120Z,99779.25
2022-08-17T23:14:12.395Z,99776.53
2022-08-17T23:19:18.065Z,99778.59
2022-08-17T23:24:22.338Z,99782.00
2022-08-17T23:29:25.170Z,99778.06
2022-08-17T23:34:29.289Z,99776.09
2022-08-17T23:39:32.120Z,99775.94
2022-08-17T23:44:35.046Z,99764.25
2022-08-17T23:49:40.317Z,99774.78
2022-08-17T23:54:44.583Z,99768.16
2022-08-17T23:59:47.323Z,99765.13
